createdAt,value
2017-06-03T00:02:01.223Z,15.50
2017-06-03T00:04:28.868Z,15.40
2017-06-03T00:06:56.544Z,15.40
2017-06-03T00:09:24.215Z,15.30
2017-06-03T00:11:52.177Z,15.30
2017-06-03T00:14:19.838Z,15.20
2017-06-03T00:16:47.484Z,15.20
2017-06-03T00:19:15.167Z,15.10
2017-06-03T00:21:42.822Z,15.10
2017-06-03T00:24:10.735Z,15.10
2017-06-03T00:26:38.380Z,15.00
2017-06-03T00:29:06.022Z,15.00
2017-06-03T00:31:34.448Z,14.80
2017-06-03T00:34:02.085Z,14.70
2017-06-03T00:36:30.001Z,14.70
2017-06-03T00:38:57.628Z,14.70
2017-06-03T00:41:26.049Z,14.60
2017-06-03T00:43:53.721Z,14.50
2017-06-03T00:46:21.383Z,14.60
2017-06-03T00:48:50.068Z,14.50
2017-06-03T00:51:17.732Z,14.40
2017-06-03T00:53:45.365Z,14.40
2017-06-03T00:56:13.032Z,14.40
2017-06-03T00:58:40.666Z,14.40
2017-06-03T01:01:08.649Z,14.30
2017-06-03T01:03:36.288Z,14.30
2017-06-03T01:06:03.922Z,14.20
2017-06-03T01:08:31.585Z,14.20
2017-06-03T01:10:59.228Z,14.20
2017-06-03T01:13:27.193Z,14.20
2017-06-03T01:15:54.856Z,14.20
2017-06-03T01:18:22.512Z,14.30
2017-06-03T01:20:50.961Z,14.60
2017-06-03T01:23:18.601Z,14.50
2017-06-03T01:25:46.547Z,14.70
2017-06-03T01:28:14.185Z,14.70
2017-06-03T01:30:41.839Z,14.80
2017-06-03T01:33:09.504Z,15.00
2017-06-03T01:35:37.165Z,15.20
2017-06-03T01:38:05.181Z,15.20
2017-06-03T01:40:32.816Z,15.30
2017-06-03T01:43:00.458Z,15.30
2017-06-03T01:45:28.137Z,15.40
2017-06-03T01:47:55.775Z,15.40
2017-06-03T01:50:23.730Z,15.40
2017-06-03T01:52:51.365Z,15.30
2017-06-03T01:55:18.997Z,15.30
2017-06-03T01:57:46.665Z,15.30
2017-06-03T02:00:14.313Z,15.30
2017-06-03T02:02:42.279Z,15.30
2017-06-03T02:05:09.922Z,15.30
2017-06-03T02:07:37.606Z,15.30
2017-06-03T02:10:06.040Z,15.20
2017-06-03T02:12:33.678Z,15.10
2017-06-03T02:15:01.621Z,15.00
2017-06-03T02:17:29.275Z,15.00
2017-06-03T02:19:56.909Z,15.00
2017-06-03T02:22:24.599Z,15.00
2017-06-03T02:24:52.245Z,15.10
2017-06-03T02:27:20.265Z,15.00
2017-06-03T02:29:47.910Z,15.00
2017-06-03T02:32:15.556Z,15.00
2017-06-03T02:34:43.226Z,15.00
2017-06-03T02:37:10.874Z,15.10
2017-06-03T02:39:38.800Z,15.20
2017-06-03T02:42:06.450Z,15.20
2017-06-03T02:44:34.087Z,15.20
2017-06-03T02:47:01.754Z,15.30
2017-06-03T02:49:29.466Z,15.30
2017-06-03T02:51:57.457Z,15.30
2017-06-03T02:54:25.104Z,15.20
2017-06-03T02:56:52.739Z,15.20
2017-06-03T02:59:20.408Z,15.10
2017-06-03T03:01:48.040Z,15.00
2017-06-03T03:04:15.992Z,15.00
2017-06-03T03:06:43.634Z,14.90
2017-06-03T03:09:11.286Z,14.90
2017-06-03T03:11:38.953Z,14.90
2017-06-03T03:14:06.593Z,14.80
2017-06-03T03:16:34.531Z,14.90
2017-06-03T03:19:02.167Z,14.90
2017-06-03T03:21:29.809Z,14.90
2017-06-03T03:23:57.481Z,14.90
2017-06-03T03:26:25.137Z,14.90
2017-06-03T03:28:53.050Z,14.90
2017-06-03T03:31:20.702Z,15.00
2017-06-03T03:33:48.342Z,15.10
2017-06-03T03:36:16.010Z,15.10
2017-06-03T03:38:43.668Z,15.20
2017-06-03T03:41:11.711Z,15.20
2017-06-03T03:43:39.364Z,15.30
2017-06-03T03:46:07.013Z,15.40
2017-06-03T03:48:34.676Z,15.40
2017-06-03T03:51:02.308Z,15.50
2017-06-03T03:53:30.254Z,15.50
2017-06-03T03:55:57.908Z,15.60
2017-06-03T03:58:25.542Z,15.60
2017-06-03T04:00:53.208Z,15.70
2017-06-03T04:03:20.849Z,15.80
2017-06-03T04:05:48.793Z,15.80
2017-06-03T04:08:16.442Z,15.80
2017-06-03T04:10:44.078Z,15.80
2017-06-03T04:13:11.737Z,15.70
2017-06-03T04:15:39.375Z,15.80
2017-06-03T04:18:07.333Z,15.80
2017-06-03T04:20:34.968Z,15.80
2017-06-03T04:23:02.601Z,15.90
2017-06-03T04:25:30.265Z,15.80
2017-06-03T04:27:57.913Z,16.00
2017-06-03T04:30:25.855Z,16.10
2017-06-03T04:32:53.499Z,16.30
2017-06-03T04:35:21.141Z,16.40
2017-06-03T04:37:48.812Z,16.60
2017-06-03T04:40:16.456Z,16.70
2017-06-03T04:42:44.413Z,17.00
2017-06-03T04:45:12.060Z,17.30
2017-06-03T04:47:39.706Z,17.40
2017-06-03T04:50:08.104Z,17.40
2017-06-03T04:52:35.732Z,17.30
2017-06-03T04:55:03.673Z,17.30
2017-06-03T04:57:31.343Z,17.20
2017-06-03T04:59:58.979Z,17.10
2017-06-03T05:02:26.659Z,17.20
2017-06-03T05:04:55.066Z,17.30
2017-06-03T05:07:23.017Z,17.20
2017-06-03T05:09:50.669Z,17.40
2017-06-03T05:12:18.326Z,17.50
2017-06-03T05:14:45.997Z,17.50
2017-06-03T05:17:13.646Z,17.50
2017-06-03T05:19:41.671Z,17.40
2017-06-03T05:22:09.305Z,17.40
2017-06-03T05:24:36.972Z,17.40
2017-06-03T05:27:04.646Z,17.60
2017-06-03T05:29:32.288Z,17.70
2017-06-03T05:32:00.325Z,17.80
2017-06-03T05:34:27.960Z,17.80
2017-06-03T05:36:55.610Z,17.90
2017-06-03T05:39:23.285Z,18.00
2017-06-03T05:41:51.726Z,18.10
2017-06-03T05:44:19.671Z,18.10
2017-06-03T05:46:47.309Z,18.20
2017-06-03T05:49:14.948Z,18.30
2017-06-03T05:51:42.630Z,18.60
2017-06-03T05:54:10.274Z,19.00
2017-06-03T05:56:38.233Z,19.40
2017-06-03T05:59:05.859Z,19.70
2017-06-03T06:01:33.496Z,19.70
2017-06-03T06:04:01.157Z,20.00
2017-06-03T06:06:28.780Z,20.50
2017-06-03T06:08:56.701Z,21.20
2017-06-03T06:11:24.333Z,22.00
2017-06-03T06:13:51.975Z,22.90
2017-06-03T06:16:19.636Z,23.30
2017-06-03T06:18:47.266Z,23.60
2017-06-03T06:21:15.171Z,24.20
2017-06-03T06:23:42.822Z,24.60
2017-06-03T06:26:10.472Z,25.20
2017-06-03T06:28:38.123Z,25.30
2017-06-03T06:31:05.744Z,25.50
2017-06-03T06:33:34.451Z,27.50
2017-06-03T06:36:02.129Z,27.30
2017-06-03T06:38:29.751Z,28.20
2017-06-03T06:40:57.407Z,28.30
2017-06-03T06:43:25.120Z,28.10
2017-06-03T06:45:53.005Z,27.70
2017-06-03T06:48:20.771Z,28.00
2017-06-03T06:50:48.390Z,28.30
2017-06-03T06:53:16.064Z,28.80
2017-06-03T06:55:43.700Z,29.60
2017-06-03T06:58:11.630Z,28.70
2017-06-03T07:00:39.245Z,27.70
2017-06-03T07:03:07.747Z,27.30
2017-06-03T07:05:35.411Z,27.20
2017-06-03T07:08:03.012Z,27.60
2017-06-03T07:10:31.709Z,27.70
2017-06-03T07:12:59.450Z,27.60
2017-06-03T07:15:27.089Z,27.50
2017-06-03T07:17:54.740Z,27.20
2017-06-03T07:20:22.360Z,27.30
2017-06-03T07:22:51.063Z,28.80
2017-06-03T07:25:18.664Z,28.80
2017-06-03T07:27:46.289Z,29.50
2017-06-03T07:30:14.042Z,29.80
2017-06-03T07:32:41.644Z,30.50
2017-06-03T07:35:09.763Z,30.40
2017-06-03T07:37:37.385Z,30.00
2017-06-03T07:40:05.007Z,30.10
2017-06-03T07:42:32.652Z,29.60
2017-06-03T07:45:00.261Z,30.00
2017-06-03T07:47:28.960Z,29.70
2017-06-03T07:49:56.590Z,29.70
2017-06-03T07:52:24.213Z,30.10
2017-06-03T07:54:51.857Z,30.40
2017-06-03T07:57:19.693Z,29.60
2017-06-03T07:59:47.715Z,28.50
2017-06-03T08:02:15.319Z,29.00
2017-06-03T08:04:43.700Z,27.60
2017-06-03T08:07:11.351Z,27.50
2017-06-03T08:09:38.984Z,27.10
2017-06-03T08:12:06.964Z,26.50
2017-06-03T08:14:35.461Z,26.30
2017-06-03T08:17:03.079Z,26.00
2017-06-03T08:19:30.733Z,26.20
2017-06-03T08:21:59.205Z,25.80
2017-06-03T08:24:27.106Z,25.50
2017-06-03T08:26:55.488Z,25.30
2017-06-03T08:29:23.119Z,25.30
2017-06-03T08:31:51.540Z,25.80
2017-06-03T08:34:19.156Z,25.70
2017-06-03T08:36:47.035Z,25.90
2017-06-03T08:39:14.663Z,26.00
2017-06-03T08:41:42.272Z,25.90
2017-06-03T08:44:10.676Z,25.80
2017-06-03T08:46:38.287Z,25.70
2017-06-03T08:49:06.276Z,25.90
2017-06-03T08:51:33.889Z,26.10
2017-06-03T08:54:01.500Z,26.40
2017-06-03T08:56:29.162Z,26.20
2017-06-03T08:58:56.791Z,26.60
2017-06-03T09:01:24.688Z,26.90
2017-06-03T09:03:52.313Z,27.00
2017-06-03T09:06:19.941Z,27.10
2017-06-03T09:08:47.577Z,26.90
2017-06-03T09:11:15.187Z,27.30
2017-06-03T09:13:42.862Z,27.70
2017-06-03T09:16:10.480Z,27.80
2017-06-03T09:18:38.087Z,27.60
2017-06-03T09:21:06.038Z,27.10
2017-06-03T09:23:33.647Z,26.90
2017-06-03T09:26:01.265Z,27.40
2017-06-03T09:28:29.233Z,27.20
2017-06-03T09:30:56.846Z,27.00
2017-06-03T09:33:25.228Z,26.90
2017-06-03T09:35:53.184Z,26.90
2017-06-03T09:38:20.800Z,27.00
2017-06-03T09:40:49.214Z,27.10
2017-06-03T09:43:17.232Z,27.00
2017-06-03T09:45:45.608Z,27.10
2017-06-03T09:48:13.224Z,27.00
2017-06-03T09:50:41.126Z,26.70
2017-06-03T09:53:08.748Z,26.60
2017-06-03T09:55:36.357Z,27.10
2017-06-03T09:58:04.263Z,27.70
2017-06-03T10:00:31.893Z,27.70
2017-06-03T10:02:59.506Z,27.70
2017-06-03T10:05:27.513Z,28.50
2017-06-03T10:07:55.125Z,28.50
2017-06-03T10:10:23.506Z,27.80
2017-06-03T10:12:51.146Z,27.80
2017-06-03T10:15:18.793Z,27.80
2017-06-03T10:17:46.755Z,28.60
2017-06-03T10:20:14.372Z,29.70
2017-06-03T10:22:41.980Z,30.20
2017-06-03T10:25:09.647Z,30.40
2017-06-03T10:27:37.260Z,30.40
2017-06-03T10:30:05.163Z,30.40
2017-06-03T10:32:33.561Z,29.60
2017-06-03T10:35:01.173Z,29.50
2017-06-03T10:37:28.816Z,29.40
2017-06-03T10:39:56.428Z,29.20
2017-06-03T10:42:24.344Z,29.30
2017-06-03T10:44:51.961Z,29.90
2017-06-03T10:47:20.340Z,30.50
2017-06-03T10:49:48.037Z,30.40
2017-06-03T10:52:15.654Z,30.30
2017-06-03T10:54:43.581Z,30.30
2017-06-03T10:57:11.952Z,31.10
2017-06-03T10:59:39.569Z,31.00
2017-06-03T11:02:07.230Z,31.30
2017-06-03T11:04:34.841Z,31.40
2017-06-03T11:07:02.741Z,31.60
2017-06-03T11:09:31.120Z,30.60
2017-06-03T11:11:58.725Z,30.50
2017-06-03T11:14:26.371Z,30.80
2017-06-03T11:16:53.997Z,31.00
2017-06-03T11:19:21.958Z,30.50
2017-06-03T11:21:49.612Z,30.20
2017-06-03T11:24:17.216Z,30.30
2017-06-03T11:26:44.868Z,30.40
2017-06-03T11:29:12.477Z,30.00
2017-06-03T11:31:41.170Z,29.80
2017-06-03T11:34:08.787Z,29.70
2017-06-03T11:36:37.169Z,30.10
2017-06-03T11:39:04.819Z,30.10
2017-06-03T11:41:32.428Z,30.20
2017-06-03T11:44:00.336Z,30.30
2017-06-03T11:46:27.962Z,29.80
2017-06-03T11:48:55.578Z,30.00
2017-06-03T11:51:23.240Z,29.80
2017-06-03T11:53:51.617Z,29.30
2017-06-03T11:56:20.302Z,29.20
2017-06-03T11:58:47.903Z,29.00
2017-06-03T12:01:15.510Z,28.90
2017-06-03T12:03:43.156Z,29.00
2017-06-03T12:06:10.769Z,28.70
2017-06-03T12:08:38.874Z,28.70
2017-06-03T12:11:06.591Z,28.80
2017-06-03T12:13:34.217Z,28.80
2017-06-03T12:16:01.957Z,28.80
2017-06-03T12:18:30.342Z,28.90
2017-06-03T12:20:58.304Z,28.80
2017-06-03T12:23:25.929Z,29.00
2017-06-03T12:25:53.556Z,28.90
2017-06-03T12:28:21.212Z,29.00
2017-06-03T12:30:49.601Z,29.00
2017-06-03T12:33:17.561Z,28.90
2017-06-03T12:35:45.197Z,28.80
2017-06-03T12:38:12.894Z,28.80
2017-06-03T12:40:40.534Z,28.60
2017-06-03T12:43:08.144Z,28.80
2017-06-03T12:45:36.034Z,29.00
2017-06-03T12:48:03.644Z,28.90
2017-06-03T12:50:31.254Z,28.90
2017-06-03T12:52:58.904Z,28.90
2017-06-03T12:55:26.522Z,28.90
2017-06-03T12:57:54.434Z,28.50
2017-06-03T13:00:22.054Z,28.40
2017-06-03T13:02:50.488Z,28.60
2017-06-03T13:05:18.133Z,28.50
2017-06-03T13:07:45.745Z,28.90
2017-06-03T13:10:13.707Z,28.70
2017-06-03T13:12:41.326Z,28.50
2017-06-03T13:15:08.933Z,28.60
2017-06-03T13:17:36.588Z,28.60
2017-06-03T13:20:04.196Z,28.80
2017-06-03T13:22:32.135Z,28.80
2017-06-03T13:24:59.745Z,28.80
2017-06-03T13:27:28.125Z,28.50
2017-06-03T13:29:55.829Z,28.40
2017-06-03T13:32:23.439Z,28.40
2017-06-03T13:34:51.338Z,28.30
2017-06-03T13:37:18.948Z,28.20
2017-06-03T13:39:46.572Z,28.30
2017-06-03T13:42:14.262Z,28.30
2017-06-03T13:44:41.869Z,28.20
2017-06-03T13:47:09.795Z,28.20
2017-06-03T13:49:38.170Z,28.30
2017-06-03T13:52:05.792Z,28.20
2017-06-03T13:54:33.445Z,28.30
2017-06-03T13:57:01.051Z,28.20
2017-06-03T13:59:29.078Z,28.20
2017-06-03T14:01:56.693Z,28.20
2017-06-03T14:04:25.069Z,28.30
2017-06-03T14:06:52.720Z,28.20
2017-06-03T14:09:20.357Z,28.30
2017-06-03T14:11:48.328Z,28.20
2017-06-03T14:14:15.936Z,28.30
2017-06-03T14:16:43.548Z,28.30
2017-06-03T14:19:11.213Z,28.30
2017-06-03T14:21:38.836Z,28.10
2017-06-03T14:24:06.764Z,28.00
2017-06-03T14:26:34.389Z,28.10
2017-06-03T14:29:02.775Z,28.10
2017-06-03T14:31:30.413Z,28.10
2017-06-03T14:33:58.795Z,28.10
2017-06-03T14:36:26.744Z,28.00
2017-06-03T14:38:54.435Z,28.00
2017-06-03T14:41:22.040Z,28.10
2017-06-03T14:43:49.679Z,28.30
2017-06-03T14:46:17.292Z,28.30
2017-06-03T14:48:45.284Z,28.20
2017-06-03T14:51:12.888Z,28.30
2017-06-03T14:53:40.493Z,28.50
2017-06-03T14:56:08.132Z,28.30
2017-06-03T14:58:35.740Z,28.30
2017-06-03T15:01:04.418Z,28.20
2017-06-03T15:03:32.792Z,28.10
2017-06-03T15:06:00.399Z,28.10
2017-06-03T15:08:28.048Z,28.00
2017-06-03T15:10:55.660Z,28.00
2017-06-03T15:13:23.591Z,27.80
2017-06-03T15:15:51.204Z,27.70
2017-06-03T15:18:18.818Z,27.60
2017-06-03T15:20:46.452Z,27.60
2017-06-03T15:23:14.076Z,27.60
2017-06-03T15:25:42.032Z,27.50
2017-06-03T15:28:09.636Z,27.50
2017-06-03T15:30:37.255Z,27.50
2017-06-03T15:33:04.892Z,27.40
2017-06-03T15:35:32.511Z,27.30
2017-06-03T15:38:00.468Z,27.20
2017-06-03T15:40:28.108Z,27.20
2017-06-03T15:42:55.711Z,27.00
2017-06-03T15:45:23.357Z,26.80
2017-06-03T15:47:50.987Z,26.60
2017-06-03T15:50:18.899Z,26.40
2017-06-03T15:52:46.504Z,26.00
2017-06-03T15:55:14.117Z,25.50
2017-06-03T15:57:41.752Z,25.10
2017-06-03T16:00:09.364Z,24.60
2017-06-03T16:02:37.341Z,23.80
2017-06-03T16:05:04.971Z,23.20
2017-06-03T16:07:32.697Z,22.80
2017-06-03T16:10:00.355Z,22.40
2017-06-03T16:12:28.744Z,21.70
2017-06-03T16:14:56.696Z,21.60
2017-06-03T16:17:24.318Z,21.50
2017-06-03T16:19:52.707Z,21.30
2017-06-03T16:22:20.357Z,21.20
2017-06-03T16:24:47.986Z,21.10
2017-06-03T16:27:16.793Z,21.00
2017-06-03T16:29:44.408Z,20.90
2017-06-03T16:32:12.036Z,20.90
2017-06-03T16:34:39.685Z,20.70
2017-06-03T16:37:08.086Z,20.60
2017-06-03T16:39:36.045Z,20.60
2017-06-03T16:42:03.669Z,20.50
2017-06-03T16:44:31.287Z,20.50
2017-06-03T16:46:58.946Z,20.50
2017-06-03T16:49:26.575Z,20.50
2017-06-03T16:51:54.580Z,20.40
2017-06-03T16:54:22.240Z,20.40
2017-06-03T16:56:49.867Z,20.30
2017-06-03T16:59:17.565Z,20.20
2017-06-03T17:01:46.636Z,20.20
2017-06-03T17:04:14.406Z,20.00
2017-06-03T17:06:42.044Z,20.00
2017-06-03T17:09:10.048Z,20.00
2017-06-03T17:11:37.690Z,20.00
2017-06-03T17:14:05.359Z,20.00
2017-06-03T17:16:33.042Z,19.90
2017-06-03T17:19:01.456Z,19.80
2017-06-03T17:21:29.614Z,19.70
2017-06-03T17:23:58.252Z,19.80
2017-06-03T17:26:25.891Z,19.70
2017-06-03T17:28:53.715Z,19.60
2017-06-03T17:31:22.135Z,19.40
2017-06-03T17:33:52.849Z,19.30
2017-06-03T17:36:20.509Z,19.20
2017-06-03T17:38:48.169Z,19.10
2017-06-03T17:41:15.853Z,19.10
2017-06-03T17:43:44.292Z,19.00
2017-06-03T17:46:15.328Z,18.80
2017-06-03T17:48:43.695Z,18.80
2017-06-03T17:51:12.195Z,18.80
2017-06-03T17:53:40.565Z,18.70
2017-06-03T17:56:08.273Z,18.80
2017-06-03T17:58:36.318Z,18.70
2017-06-03T18:01:04.010Z,18.60
2017-06-03T18:03:31.765Z,18.50
2017-06-03T18:05:59.513Z,18.40
2017-06-03T18:08:27.185Z,18.40
2017-06-03T18:10:55.248Z,18.30
2017-06-03T18:13:22.901Z,18.30
2017-06-03T18:15:50.557Z,18.30
2017-06-03T18:18:18.232Z,18.20
2017-06-03T18:20:46.708Z,18.20
2017-06-03T18:23:14.800Z,18.20
2017-06-03T18:25:42.458Z,18.20
2017-06-03T18:28:10.156Z,18.20
2017-06-03T18:30:37.863Z,18.20
2017-06-03T18:33:05.667Z,18.20
2017-06-03T18:35:33.700Z,18.20
2017-06-03T18:38:02.198Z,18.10
2017-06-03T18:40:29.856Z,18.10
2017-06-03T18:42:58.705Z,18.10
2017-06-03T18:45:27.261Z,18.20
2017-06-03T18:47:56.081Z,18.10
2017-06-03T18:50:23.724Z,18.10
2017-06-03T18:52:51.376Z,18.10
2017-06-03T18:55:19.083Z,18.10
2017-06-03T18:57:46.749Z,18.10
2017-06-03T19:00:14.721Z,18.10
2017-06-03T19:02:42.422Z,18.10
2017-06-03T19:05:10.831Z,18.10
2017-06-03T19:07:39.766Z,18.00
2017-06-03T19:10:09.394Z,18.00
2017-06-03T19:12:37.342Z,17.90
2017-06-03T19:15:04.992Z,17.90
2017-06-03T19:17:32.643Z,17.80
2017-06-03T19:20:01.754Z,17.70
2017-06-03T19:22:29.481Z,17.60
2017-06-03T19:24:58.009Z,17.60
2017-06-03T19:27:26.351Z,17.50
2017-06-03T19:29:54.112Z,17.60
2017-06-03T19:32:21.812Z,17.50
2017-06-03T19:34:49.456Z,17.50
2017-06-03T19:37:17.410Z,17.50
2017-06-03T19:39:45.559Z,17.50
2017-06-03T19:42:13.798Z,17.60
2017-06-03T19:44:42.724Z,17.50
2017-06-03T19:47:11.025Z,17.40
2017-06-03T19:49:39.016Z,17.40
2017-06-03T19:52:06.723Z,17.30
2017-06-03T19:54:34.981Z,17.20
2017-06-03T19:57:03.426Z,17.20
2017-06-03T19:59:32.323Z,17.10
2017-06-03T20:02:01.868Z,17.20
2017-06-03T20:04:29.520Z,17.10
2017-06-03T20:06:57.161Z,17.20
2017-06-03T20:09:24.829Z,17.10
2017-06-03T20:11:52.468Z,17.00
2017-06-03T20:14:20.502Z,17.10
2017-06-03T20:16:48.553Z,17.10
2017-06-03T20:19:16.278Z,17.10
2017-06-03T20:21:43.954Z,17.10
2017-06-03T20:24:11.665Z,17.10
2017-06-03T20:26:39.924Z,17.10
2017-06-03T20:29:08.799Z,17.10
2017-06-03T20:31:37.685Z,17.10
2017-06-03T20:34:05.573Z,17.00
2017-06-03T20:36:33.223Z,17.00
2017-06-03T20:39:02.833Z,17.00
2017-06-03T20:41:30.657Z,17.00
2017-06-03T20:43:58.297Z,17.10
2017-06-03T20:46:25.969Z,17.10
2017-06-03T20:48:53.616Z,17.10
2017-06-03T20:51:22.068Z,17.10
2017-06-03T20:53:50.348Z,17.10
2017-06-03T20:56:17.997Z,17.10
2017-06-03T20:58:46.481Z,17.10
2017-06-03T21:01:16.642Z,17.00
2017-06-03T21:03:44.600Z,17.00
2017-06-03T21:06:12.244Z,17.00
2017-06-03T21:08:39.893Z,17.00
2017-06-03T21:11:07.685Z,17.00
2017-06-03T21:13:35.540Z,16.90
2017-06-03T21:16:03.526Z,17.00
2017-06-03T21:18:31.167Z,17.00
2017-06-03T21:20:59.744Z,16.90
2017-06-03T21:23:28.275Z,16.90
2017-06-03T21:25:57.173Z,16.80
2017-06-03T21:28:26.055Z,16.70
2017-06-03T21:30:54.275Z,16.70
2017-06-03T21:33:22.709Z,16.70
2017-06-03T21:35:50.405Z,16.60
2017-06-03T21:38:18.052Z,16.70
2017-06-03T21:40:47.249Z,16.70
2017-06-03T21:43:15.777Z,16.70
2017-06-03T21:45:43.660Z,16.60
2017-06-03T21:48:11.349Z,16.70
2017-06-03T21:50:39.488Z,16.70
2017-06-03T21:53:08.615Z,16.60
2017-06-03T21:55:36.261Z,16.70
2017-06-03T21:58:04.448Z,16.70
2017-06-03T22:00:33.157Z,16.70
2017-06-03T22:03:00.791Z,16.70
2017-06-03T22:05:28.705Z,16.70
2017-06-03T22:07:57.677Z,16.80
2017-06-03T22:10:25.355Z,16.70
2017-06-03T22:12:53.613Z,16.80
2017-06-03T22:15:22.904Z,16.80
2017-06-03T22:17:51.288Z,16.80
2017-06-03T22:20:18.952Z,16.90
2017-06-03T22:22:46.729Z,16.90
2017-06-03T22:25:15.374Z,16.90
2017-06-03T22:27:43.017Z,16.90
2017-06-03T22:30:11.105Z,16.90
2017-06-03T22:32:39.659Z,17.00
2017-06-03T22:35:07.356Z,16.90
2017-06-03T22:37:35.025Z,17.00
2017-06-03T22:40:02.678Z,17.00
2017-06-03T22:42:30.774Z,17.00
2017-06-03T22:44:59.327Z,16.90
2017-06-03T22:47:27.259Z,16.90
2017-06-03T22:49:55.036Z,16.90
2017-06-03T22:52:22.755Z,16.90
2017-06-03T22:54:51.339Z,16.90
2017-06-03T22:57:18.986Z,16.90
2017-06-03T22:59:46.656Z,16.90
2017-06-03T23:02:14.332Z,16.90
2017-06-03T23:04:42.001Z,16.90
2017-06-03T23:07:09.952Z,16.90
2017-06-03T23:09:37.617Z,16.90
2017-06-03T23:12:05.273Z,16.90
2017-06-03T23:14:33.098Z,16.90
2017-06-03T23:17:00.888Z,16.90
2017-06-03T23:19:28.958Z,16.90
2017-06-03T23:21:56.611Z,16.90
2017-06-03T23:24:24.347Z,16.80
2017-06-03T23:26:52.017Z,16.90
2017-06-03T23:29:19.676Z,16.80
2017-06-03T23:31:47.662Z,16.80
2017-06-03T23:34:15.319Z,16.80
2017-06-03T23:36:42.985Z,16.80
2017-06-03T23:39:10.662Z,16.80
2017-06-03T23:41:38.325Z,16.80
2017-06-03T23:44:06.252Z,16.80
2017-06-03T23:46:33.909Z,16.80
2017-06-03T23:49:01.562Z,16.80
2017-06-03T23:51:29.245Z,16.80
2017-06-03T23:53:57.011Z,16.80
2017-06-03T23:56:25.752Z,16.80
2017-06-03T23:58:53.409Z,16.70
